sensor_id;sensor_type;location;lat;lon;timestamp;pressure;altitude;pressure_sealevel;temperature;humidity
1926;BME280;964;42.606;23.588;2024-02-26T00:00:15;94068.34;;;17.49;47.59
1926;BME280;964;42.606;23.588;2024-02-26T00:02:44;94057.66;;;18.45;45.52
1926;BME280;964;42.606;23.588;2024-02-26T00:05:11;94062.63;;;18.00;46.28
1926;BME280;964;42.606;23.588;2024-02-26T00:07:37;94060.66;;;18.51;45.13
1926;BME280;964;42.606;23.588;2024-02-26T00:10:05;94065.66;;;18.72;44.79
1926;BME280;964;42.606;23.588;2024-02-26T00:12:32;94058.81;;;18.25;46.26
1926;BME280;964;42.606;23.588;2024-02-26T00:14:59;94056.59;;;18.20;46.07
1926;BME280;964;42.606;23.588;2024-02-26T00:17:26;94053.63;;;18.14;46.07
1926;BME280;964;42.606;23.588;2024-02-26T00:19:54;94051.66;;;18.38;45.49
1926;BME280;964;42.606;23.588;2024-02-26T00:22:20;94047.78;;;18.62;45.27
1926;BME280;964;42.606;23.588;2024-02-26T00:24:48;94049.50;;;18.52;45.77
1926;BME280;964;42.606;23.588;2024-02-26T00:27:15;94033.03;;;18.93;44.98
1926;BME280;964;42.606;23.588;2024-02-26T00:29:42;94043.63;;;19.00;45.00
1926;BME280;964;42.606;23.588;2024-02-26T00:32:08;94036.47;;;18.74;45.63
1926;BME280;964;42.606;23.588;2024-02-26T00:34:35;94026.41;;;18.98;44.93
1926;BME280;964;42.606;23.588;2024-02-26T00:37:04;94020.31;;;19.14;44.55
1926;BME280;964;42.606;23.588;2024-02-26T00:39:31;94031.81;;;18.94;44.84
1926;BME280;964;42.606;23.588;2024-02-26T00:41:58;94029.75;;;18.20;46.78
1926;BME280;964;42.606;23.588;2024-02-26T00:44:25;94022.41;;;18.00;47.15
1926;BME280;964;42.606;23.588;2024-02-26T00:46:51;94031.59;;;18.03;47.05
1926;BME280;964;42.606;23.588;2024-02-26T00:49:18;94029.16;;;18.55;46.39
1926;BME280;964;42.606;23.588;2024-02-26T00:51:45;94024.16;;;19.13;45.12
1926;BME280;964;42.606;23.588;2024-02-26T00:54:13;94030.59;;;18.17;46.82
1926;BME280;964;42.606;23.588;2024-02-26T00:56:40;94038.09;;;18.25;45.99
1926;BME280;964;42.606;23.588;2024-02-26T00:59:07;94026.19;;;18.69;44.97
1926;BME280;964;42.606;23.588;2024-02-26T01:01:33;94024.69;;;18.88;43.96
1926;BME280;964;42.606;23.588;2024-02-26T01:04:00;94020.00;;;19.12;43.37
1926;BME280;964;42.606;23.588;2024-02-26T01:06:28;94014.94;;;19.14;43.51
1926;BME280;964;42.606;23.588;2024-02-26T01:08:55;94017.00;;;19.26;43.13
1926;BME280;964;42.606;23.588;2024-02-26T01:11:23;94010.63;;;19.20;43.13
1926;BME280;964;42.606;23.588;2024-02-26T01:13:50;94002.69;;;19.13;43.44
1926;BME280;964;42.606;23.588;2024-02-26T01:16:21;94003.97;;;19.24;43.12
1926;BME280;964;42.606;23.588;2024-02-26T01:18:48;94012.03;;;19.44;42.62
1926;BME280;964;42.606;23.588;2024-02-26T01:21:15;94007.25;;;19.32;42.62
1926;BME280;964;42.606;23.588;2024-02-26T01:23:41;94006.72;;;19.21;42.83
1926;BME280;964;42.606;23.588;2024-02-26T01:26:08;93996.88;;;19.34;42.82
1926;BME280;964;42.606;23.588;2024-02-26T01:28:36;94000.09;;;19.45;42.69
1926;BME280;964;42.606;23.588;2024-02-26T01:31:03;94000.94;;;19.58;42.30
1926;BME280;964;42.606;23.588;2024-02-26T01:33:32;93996.41;;;19.87;42.18
1926;BME280;964;42.606;23.588;2024-02-26T01:35:58;93994.41;;;19.23;43.40
1926;BME280;964;42.606;23.588;2024-02-26T01:38:26;94001.88;;;19.16;43.80
1926;BME280;964;42.606;23.588;2024-02-26T01:40:52;94004.34;;;19.06;44.16
1926;BME280;964;42.606;23.588;2024-02-26T01:43:19;93996.81;;;19.18;43.63
1926;BME280;964;42.606;23.588;2024-02-26T01:45:47;93990.75;;;18.97;43.54
1926;BME280;964;42.606;23.588;2024-02-26T01:48:14;94001.94;;;19.48;43.02
1926;BME280;964;42.606;23.588;2024-02-26T01:50:41;94002.69;;;19.13;43.63
1926;BME280;964;42.606;23.588;2024-02-26T01:53:09;93991.66;;;19.27;43.58
1926;BME280;964;42.606;23.588;2024-02-26T01:55:36;93998.06;;;19.13;44.20
1926;BME280;964;42.606;23.588;2024-02-26T01:58:03;93990.09;;;18.54;45.09
1926;BME280;964;42.606;23.588;2024-02-26T02:00:31;93989.31;;;18.93;44.87
1926;BME280;964;42.606;23.588;2024-02-26T02:03:00;93988.25;;;19.06;44.73
1926;BME280;964;42.606;23.588;2024-02-26T02:05:28;93983.38;;;19.01;44.91
1926;BME280;964;42.606;23.588;2024-02-26T02:07:55;93982.63;;;18.81;44.81
1926;BME280;964;42.606;23.588;2024-02-26T02:10:23;93982.03;;;19.09;44.43
1926;BME280;964;42.606;23.588;2024-02-26T02:12:51;93988.69;;;18.46;45.78
1926;BME280;964;42.606;23.588;2024-02-26T02:15:18;93992.09;;;18.03;47.44
1926;BME280;964;42.606;23.588;2024-02-26T02:17:45;93989.78;;;18.29;46.71
1926;BME280;964;42.606;23.588;2024-02-26T02:20:16;93992.06;;;18.50;46.34
1926;BME280;964;42.606;23.588;2024-02-26T02:22:45;93984.63;;;17.95;47.04
1926;BME280;964;42.606;23.588;2024-02-26T02:25:12;93985.13;;;18.29;46.10
1926;BME280;964;42.606;23.588;2024-02-26T02:27:39;93984.44;;;18.05;47.06
1926;BME280;964;42.606;23.588;2024-02-26T02:30:07;93984.50;;;18.65;45.30
1926;BME280;964;42.606;23.588;2024-02-26T02:32:36;93985.13;;;18.29;46.53
1926;BME280;964;42.606;23.588;2024-02-26T02:35:04;93991.19;;;18.13;46.62
1926;BME280;964;42.606;23.588;2024-02-26T02:37:31;93995.69;;;17.97;46.75
1926;BME280;964;42.606;23.588;2024-02-26T02:39:59;93991.78;;;18.01;46.84
1926;BME280;964;42.606;23.588;2024-02-26T02:42:26;93987.44;;;18.31;46.05
1926;BME280;964;42.606;23.588;2024-02-26T02:44:53;93987.91;;;18.45;45.46
1926;BME280;964;42.606;23.588;2024-02-26T02:47:19;93996.44;;;18.40;46.00
1926;BME280;964;42.606;23.588;2024-02-26T02:49:46;94000.97;;;18.24;46.20
1926;BME280;964;42.606;23.588;2024-02-26T02:52:13;93993.22;;;18.49;45.48
1926;BME280;964;42.606;23.588;2024-02-26T02:54:40;93989.13;;;18.64;44.80
1926;BME280;964;42.606;23.588;2024-02-26T02:57:09;93986.41;;;18.84;44.99
1926;BME280;964;42.606;23.588;2024-02-26T02:59:36;93983.59;;;18.32;45.85
1926;BME280;964;42.606;23.588;2024-02-26T03:02:03;93991.66;;;17.62;47.83
1926;BME280;964;42.606;23.588;2024-02-26T03:04:30;93983.44;;;18.39;46.09
1926;BME280;964;42.606;23.588;2024-02-26T03:06:57;93984.91;;;18.83;44.61
1926;BME280;964;42.606;23.588;2024-02-26T03:09:25;93998.75;;;18.19;45.52
1926;BME280;964;42.606;23.588;2024-02-26T03:11:52;94004.28;;;18.31;45.78
1926;BME280;964;42.606;23.588;2024-02-26T03:14:20;93996.66;;;18.89;45.36
1926;BME280;964;42.606;23.588;2024-02-26T03:16:47;93997.03;;;18.71;44.79
1926;BME280;964;42.606;23.588;2024-02-26T03:19:14;94001.34;;;19.04;44.38
1926;BME280;964;42.606;23.588;2024-02-26T03:21:41;93996.97;;;19.10;44.45
1926;BME280;964;42.606;23.588;2024-02-26T03:24:07;93995.13;;;19.43;43.84
1926;BME280;964;42.606;23.588;2024-02-26T03:26:35;93985.13;;;18.72;45.18
1926;BME280;964;42.606;23.588;2024-02-26T03:29:02;93985.13;;;18.72;44.57
1926;BME280;964;42.606;23.588;2024-02-26T03:31:31;93991.13;;;19.16;43.71
1926;BME280;964;42.606;23.588;2024-02-26T03:33:58;93987.03;;;18.91;44.20
1926;BME280;964;42.606;23.588;2024-02-26T03:36:25;93989.63;;;19.31;43.35
1926;BME280;964;42.606;23.588;2024-02-26T03:38:52;93993.22;;;19.44;42.74
1926;BME280;964;42.606;23.588;2024-02-26T03:41:19;93984.06;;;19.57;42.36
1926;BME280;964;42.606;23.588;2024-02-26T03:43:46;93981.47;;;19.70;42.28
1926;BME280;964;42.606;23.588;2024-02-26T03:46:12;93977.41;;;19.78;41.84
1926;BME280;964;42.606;23.588;2024-02-26T03:48:41;93989.88;;;19.56;42.32
1926;BME280;964;42.606;23.588;2024-02-26T03:51:08;93978.50;;;19.13;43.38
1926;BME280;964;42.606;23.588;2024-02-26T03:53:36;93979.47;;;19.22;42.79
1926;BME280;964;42.606;23.588;2024-02-26T03:56:04;93981.56;;;19.31;42.72
1926;BME280;964;42.606;23.588;2024-02-26T03:58:31;93980.28;;;19.55;42.34
1926;BME280;964;42.606;23.588;2024-02-26T04:00:59;93977.50;;;19.06;43.20
1926;BME280;964;42.606;23.588;2024-02-26T04:03:26;93987.59;;;18.63;44.11
1926;BME280;964;42.606;23.588;2024-02-26T04:05:54;93986.78;;;18.66;44.32
1926;BME280;964;42.606;23.588;2024-02-26T04:08:20;93986.00;;;18.46;44.78
1926;BME280;964;42.606;23.588;2024-02-26T04:10:47;93977.56;;;18.67;44.04
1926;BME280;964;42.606;23.588;2024-02-26T04:13:14;93978.56;;;18.93;44.08
1926;BME280;964;42.606;23.588;2024-02-26T04:15:41;93983.22;;;17.87;46.26
1926;BME280;964;42.606;23.588;2024-02-26T04:18:08;93973.97;;;17.91;46.24
1926;BME280;964;42.606;23.588;2024-02-26T04:20:35;93977.38;;;18.35;45.31
1926;BME280;964;42.606;23.588;2024-02-26T04:23:04;93975.16;;;18.53;44.99
1926;BME280;964;42.606;23.588;2024-02-26T04:25:30;93967.91;;;18.70;44.61
1926;BME280;964;42.606;23.588;2024-02-26T04:27:57;93963.50;;;18.79;44.08
1926;BME280;964;42.606;23.588;2024-02-26T04:30:24;93973.28;;;18.89;43.97
1926;BME280;964;42.606;23.588;2024-02-26T04:32:51;93970.19;;;18.71;44.26
1926;BME280;964;42.606;23.588;2024-02-26T04:35:18;93966.75;;;19.06;43.61
1926;BME280;964;42.606;23.588;2024-02-26T04:37:45;93966.91;;;18.99;43.71
1926;BME280;964;42.606;23.588;2024-02-26T04:40:13;93979.34;;;18.54;44.55
1926;BME280;964;42.606;23.588;2024-02-26T04:42:40;93979.75;;;18.72;44.28
1926;BME280;964;42.606;23.588;2024-02-26T04:45:07;93970.53;;;19.09;43.62
1926;BME280;964;42.606;23.588;2024-02-26T04:47:34;93974.53;;;18.65;43.69
1926;BME280;964;42.606;23.588;2024-02-26T04:50:01;93975.09;;;18.33;45.19
1926;BME280;964;42.606;23.588;2024-02-26T04:52:28;93968.50;;;19.33;43.13
1926;BME280;964;42.606;23.588;2024-02-26T04:54:55;93985.94;;;18.49;44.47
1926;BME280;964;42.606;23.588;2024-02-26T04:57:23;93993.75;;;17.74;46.17
1926;BME280;964;42.606;23.588;2024-02-26T04:59:50;93998.63;;;17.29;46.57
1926;BME280;964;42.606;23.588;2024-02-26T05:02:16;93989.91;;;17.75;45.43
1926;BME280;964;42.606;23.588;2024-02-26T05:04:43;93997.22;;;17.48;46.30
1926;BME280;964;42.606;23.588;2024-02-26T05:07:10;93996.13;;;16.88;47.94
1926;BME280;964;42.606;23.588;2024-02-26T05:09:37;93994.25;;;16.85;47.96
1926;BME280;964;42.606;23.588;2024-02-26T05:12:05;94005.22;;;16.64;48.47
1926;BME280;964;42.606;23.588;2024-02-26T05:14:33;93986.84;;;17.50;46.98
1926;BME280;964;42.606;23.588;2024-02-26T05:17:00;93996.84;;;17.73;46.02
1926;BME280;964;42.606;23.588;2024-02-26T05:19:27;93995.00;;;17.70;45.98
1926;BME280;964;42.606;23.588;2024-02-26T05:21:53;93995.88;;;17.63;45.73
1926;BME280;964;42.606;23.588;2024-02-26T05:24:20;94000.16;;;18.03;44.81
1926;BME280;964;42.606;23.588;2024-02-26T05:26:48;94004.06;;;17.49;45.92
1926;BME280;964;42.606;23.588;2024-02-26T05:29:14;94003.53;;;17.61;46.83
1926;BME280;964;42.606;23.588;2024-02-26T05:31:43;94011.81;;;17.43;46.76
1926;BME280;964;42.606;23.588;2024-02-26T05:34:10;94009.94;;;17.67;46.06
1926;BME280;964;42.606;23.588;2024-02-26T05:36:36;94008.69;;;17.98;46.17
1926;BME280;964;42.606;23.588;2024-02-26T05:39:04;94013.69;;;17.73;45.75
1926;BME280;964;42.606;23.588;2024-02-26T05:41:31;94019.03;;;16.59;48.51
1926;BME280;964;42.606;23.588;2024-02-26T05:43:58;94018.34;;;17.15;48.98
1926;BME280;964;42.606;23.588;2024-02-26T05:46:25;94025.56;;;17.19;47.26
1926;BME280;964;42.606;23.588;2024-02-26T05:48:53;94033.97;;;16.56;48.99
1926;BME280;964;42.606;23.588;2024-02-26T05:51:20;94022.41;;;17.24;47.44
1926;BME280;964;42.606;23.588;2024-02-26T05:53:47;94030.94;;;17.95;46.15
1926;BME280;964;42.606;23.588;2024-02-26T05:56:19;94034.53;;;18.08;45.69
1926;BME280;964;42.606;23.588;2024-02-26T05:58:46;94035.56;;;18.38;44.81
1926;BME280;964;42.606;23.588;2024-02-26T06:01:13;94034.63;;;18.48;44.06
1926;BME280;964;42.606;23.588;2024-02-26T06:03:39;94038.66;;;18.36;44.79
1926;BME280;964;42.606;23.588;2024-02-26T06:06:08;94042.22;;;18.53;44.46
1926;BME280;964;42.606;23.588;2024-02-26T06:08:34;94046.22;;;18.84;44.23
1926;BME280;964;42.606;23.588;2024-02-26T06:11:05;94039.78;;;19.01;43.92
1926;BME280;964;42.606;23.588;2024-02-26T06:13:32;94038.03;;;18.91;44.05
1926;BME280;964;42.606;23.588;2024-02-26T06:15:59;94036.78;;;18.96;43.97
1926;BME280;964;42.606;23.588;2024-02-26T06:18:26;94036.97;;;19.25;43.24
1926;BME280;964;42.606;23.588;2024-02-26T06:20:53;94030.59;;;19.35;43.56
1926;BME280;964;42.606;23.588;2024-02-26T06:23:21;94041.63;;;19.04;43.60
1926;BME280;964;42.606;23.588;2024-02-26T06:25:48;94038.25;;;19.00;44.35
1926;BME280;964;42.606;23.588;2024-02-26T06:28:14;94037.59;;;19.13;43.66
1926;BME280;964;42.606;23.588;2024-02-26T06:30:41;94027.22;;;19.31;43.94
1926;BME280;964;42.606;23.588;2024-02-26T06:33:08;94037.22;;;19.50;43.48
1926;BME280;964;42.606;23.588;2024-02-26T06:35:36;94036.06;;;19.31;43.87
1926;BME280;964;42.606;23.588;2024-02-26T06:38:03;94040.28;;;19.13;44.15
1926;BME280;964;42.606;23.588;2024-02-26T06:40:31;94042.09;;;19.35;44.42
1926;BME280;964;42.606;23.588;2024-02-26T06:42:58;94034.63;;;19.63;44.07
1926;BME280;964;42.606;23.588;2024-02-26T06:45:24;94028.81;;;19.48;44.24
1926;BME280;964;42.606;23.588;2024-02-26T06:47:51;94039.25;;;19.62;43.82
1926;BME280;964;42.606;23.588;2024-02-26T06:50:18;94042.03;;;19.39;44.28
1926;BME280;964;42.606;23.588;2024-02-26T06:52:44;94037.06;;;20.05;42.85
1926;BME280;964;42.606;23.588;2024-02-26T06:55:12;94034.31;;;19.77;43.61
1926;BME280;964;42.606;23.588;2024-02-26T06:57:40;94037.56;;;19.68;44.06
1926;BME280;964;42.606;23.588;2024-02-26T07:00:08;94048.22;;;19.20;45.03
1926;BME280;964;42.606;23.588;2024-02-26T07:02:39;94038.66;;;18.79;45.62
1926;BME280;964;42.606;23.588;2024-02-26T07:05:06;94042.78;;;19.03;45.48
1926;BME280;964;42.606;23.588;2024-02-26T07:07:33;94041.03;;;19.33;44.77
1926;BME280;964;42.606;23.588;2024-02-26T07:10:00;94049.72;;;19.21;44.45
1926;BME280;964;42.606;23.588;2024-02-26T07:12:29;94052.53;;;19.14;45.27
1926;BME280;964;42.606;23.588;2024-02-26T07:14:57;94047.47;;;18.99;45.16
1926;BME280;964;42.606;23.588;2024-02-26T07:17:25;94049.47;;;19.31;45.19
1926;BME280;964;42.606;23.588;2024-02-26T07:19:51;94051.19;;;19.93;43.95
1926;BME280;964;42.606;23.588;2024-02-26T07:22:18;94061.19;;;19.41;44.77
1926;BME280;964;42.606;23.588;2024-02-26T07:24:45;94052.19;;;19.83;43.88
1926;BME280;964;42.606;23.588;2024-02-26T07:27:12;94056.63;;;19.57;44.82
1926;BME280;964;42.606;23.588;2024-02-26T07:29:39;94056.53;;;19.05;45.76
1926;BME280;964;42.606;23.588;2024-02-26T07:32:07;94056.34;;;18.77;46.21
1926;BME280;964;42.606;23.588;2024-02-26T07:34:36;94046.63;;;18.40;46.38
1926;BME280;964;42.606;23.588;2024-02-26T07:37:06;94054.34;;;18.61;47.12
1926;BME280;964;42.606;23.588;2024-02-26T07:39:33;94073.44;;;18.20;47.39
1926;BME280;964;42.606;23.588;2024-02-26T07:42:00;94063.47;;;18.21;47.45
1926;BME280;964;42.606;23.588;2024-02-26T07:44:27;94067.06;;;17.87;47.24
1926;BME280;964;42.606;23.588;2024-02-26T07:46:54;94063.69;;;18.30;47.07
1926;BME280;964;42.606;23.588;2024-02-26T07:49:22;94061.69;;;18.34;46.99
1926;BME280;964;42.606;23.588;2024-02-26T07:51:49;94061.09;;;18.69;46.76
1926;BME280;964;42.606;23.588;2024-02-26T07:54:15;94056.81;;;18.52;47.24
1926;BME280;964;42.606;23.588;2024-02-26T07:56:44;94066.94;;;18.41;47.09
1926;BME280;964;42.606;23.588;2024-02-26T07:59:11;94055.16;;;18.58;46.73
1926;BME280;964;42.606;23.588;2024-02-26T08:01:38;94050.63;;;18.94;46.19
1926;BME280;964;42.606;23.588;2024-02-26T08:04:06;94056.91;;;19.07;45.93
1926;BME280;964;42.606;23.588;2024-02-26T08:06:34;94051.41;;;19.31;45.55
1926;BME280;964;42.606;23.588;2024-02-26T08:09:01;94054.06;;;19.15;45.84
1926;BME280;964;42.606;23.588;2024-02-26T08:11:29;94048.06;;;20.11;44.28
1926;BME280;964;42.606;23.588;2024-02-26T08:13:56;94049.31;;;19.58;45.13
1926;BME280;964;42.606;23.588;2024-02-26T08:16:24;94046.16;;;19.95;44.60
1926;BME280;964;42.606;23.588;2024-02-26T08:18:51;94047.09;;;19.89;44.90
1926;BME280;964;42.606;23.588;2024-02-26T08:21:17;94050.34;;;19.80;44.59
1926;BME280;964;42.606;23.588;2024-02-26T08:23:46;94048.03;;;19.46;45.17
1926;BME280;964;42.606;23.588;2024-02-26T08:26:13;94042.97;;;19.84;44.66
1926;BME280;964;42.606;23.588;2024-02-26T08:28:40;94035.47;;;20.69;42.58
1926;BME280;964;42.606;23.588;2024-02-26T08:31:06;94025.56;;;21.08;42.15
1926;BME280;964;42.606;23.588;2024-02-26T08:33:33;94032.81;;;20.82;42.04
1926;BME280;964;42.606;23.588;2024-02-26T08:36:04;94028.88;;;20.99;42.04
1926;BME280;964;42.606;23.588;2024-02-26T08:38:31;94033.06;;;20.87;41.63
1926;BME280;964;42.606;23.588;2024-02-26T08:41:01;94028.88;;;20.99;41.69
1926;BME280;964;42.606;23.588;2024-02-26T08:43:28;94028.13;;;21.65;41.05
1926;BME280;964;42.606;23.588;2024-02-26T08:45:55;94032.97;;;21.70;40.05
1926;BME280;964;42.606;23.588;2024-02-26T08:48:21;94027.25;;;21.30;40.89
1926;BME280;964;42.606;23.588;2024-02-26T08:50:48;94016.47;;;22.96;39.13
1926;BME280;964;42.606;23.588;2024-02-26T08:53:15;94029.06;;;22.22;38.51
1926;BME280;964;42.606;23.588;2024-02-26T08:55:41;94033.41;;;21.81;39.36
1926;BME280;964;42.606;23.588;2024-02-26T08:58:10;94024.81;;;22.55;37.93
1926;BME280;964;42.606;23.588;2024-02-26T09:00:36;94025.94;;;23.44;37.16
1926;BME280;964;42.606;23.588;2024-02-26T09:03:04;94019.84;;;23.10;37.34
1926;BME280;964;42.606;23.588;2024-02-26T09:05:30;94022.13;;;22.89;37.85
1926;BME280;964;42.606;23.588;2024-02-26T09:07:57;94025.41;;;21.65;39.08
1926;BME280;964;42.606;23.588;2024-02-26T09:10:24;94019.16;;;22.40;37.97
1926;BME280;964;42.606;23.588;2024-02-26T09:12:51;94029.94;;;21.68;39.42
1926;BME280;964;42.606;23.588;2024-02-26T09:15:19;94030.47;;;21.76;39.01
1926;BME280;964;42.606;23.588;2024-02-26T09:17:46;94028.66;;;21.85;38.41
1926;BME280;964;42.606;23.588;2024-02-26T09:20:15;94028.88;;;21.78;38.96
1926;BME280;964;42.606;23.588;2024-02-26T09:22:45;94026.72;;;21.73;38.81
1926;BME280;964;42.606;23.588;2024-02-26T09:25:12;94022.38;;;22.14;38.51
1926;BME280;964;42.606;23.588;2024-02-26T09:27:41;94022.00;;;23.76;36.31
1926;BME280;964;42.606;23.588;2024-02-26T09:30:08;94019.69;;;23.35;34.91
1926;BME280;964;42.606;23.588;2024-02-26T09:32:36;94012.78;;;23.34;35.78
1926;BME280;964;42.606;23.588;2024-02-26T09:35:04;93994.31;;;26.20;32.03
1926;BME280;964;42.606;23.588;2024-02-26T09:37:30;93999.88;;;24.81;33.00
1926;BME280;964;42.606;23.588;2024-02-26T09:39:58;94015.41;;;23.25;35.93
1926;BME280;964;42.606;23.588;2024-02-26T09:42:25;94005.72;;;23.06;35.60
1926;BME280;964;42.606;23.588;2024-02-26T09:44:54;93991.69;;;24.00;34.58
1926;BME280;964;42.606;23.588;2024-02-26T09:47:23;94015.59;;;22.78;37.27
1926;BME280;964;42.606;23.588;2024-02-26T09:49:52;94020.78;;;21.78;37.38
1926;BME280;964;42.606;23.588;2024-02-26T09:52:20;94009.25;;;22.59;36.49
1926;BME280;964;42.606;23.588;2024-02-26T09:54:47;94009.50;;;22.52;35.71
1926;BME280;964;42.606;23.588;2024-02-26T09:57:15;94008.47;;;21.77;36.86
1926;BME280;964;42.606;23.588;2024-02-26T09:59:44;94015.97;;;21.07;38.18
1926;BME280;964;42.606;23.588;2024-02-26T10:02:12;94009.25;;;21.27;37.83
1926;BME280;964;42.606;23.588;2024-02-26T10:04:40;94008.50;;;21.52;38.16
1926;BME280;964;42.606;23.588;2024-02-26T10:07:10;94012.16;;;20.91;38.66
1926;BME280;964;42.606;23.588;2024-02-26T10:09:37;94015.28;;;21.44;38.43
1926;BME280;964;42.606;23.588;2024-02-26T10:12:04;94005.03;;;22.02;39.21
1926;BME280;964;42.606;23.588;2024-02-26T10:14:31;94008.38;;;21.81;38.50
1926;BME280;964;42.606;23.588;2024-02-26T10:16:58;93995.47;;;22.23;37.32
1926;BME280;964;42.606;23.588;2024-02-26T10:19:26;93994.31;;;22.45;37.29
1926;BME280;964;42.606;23.588;2024-02-26T10:21:58;93991.94;;;22.47;37.05
1926;BME280;964;42.606;23.588;2024-02-26T10:24:27;93994.75;;;22.10;37.49
1926;BME280;964;42.606;23.588;2024-02-26T10:26:55;93983.16;;;23.00;37.37
1926;BME280;964;42.606;23.588;2024-02-26T10:29:24;93986.41;;;22.51;37.08
1926;BME280;964;42.606;23.588;2024-02-26T10:31:51;93982.63;;;23.14;34.97
1926;BME280;964;42.606;23.588;2024-02-26T10:34:18;93978.66;;;24.16;34.74
1926;BME280;964;42.606;23.588;2024-02-26T10:36:45;93970.69;;;24.49;34.80
1926;BME280;964;42.606;23.588;2024-02-26T10:39:12;93972.78;;;24.27;33.32
1926;BME280;964;42.606;23.588;2024-02-26T10:41:42;93978.38;;;22.60;35.48
1926;BME280;964;42.606;23.588;2024-02-26T10:44:10;93980.88;;;23.20;35.24
1926;BME280;964;42.606;23.588;2024-02-26T10:46:38;93968.38;;;23.44;34.78
1926;BME280;964;42.606;23.588;2024-02-26T10:49:05;93970.84;;;22.99;34.44
1926;BME280;964;42.606;23.588;2024-02-26T10:51:35;93969.06;;;23.05;35.13
1926;BME280;964;42.606;23.588;2024-02-26T10:54:04;93968.53;;;23.19;33.81
1926;BME280;964;42.606;23.588;2024-02-26T10:56:34;93963.47;;;22.68;34.42
1926;BME280;964;42.606;23.588;2024-02-26T10:59:02;93969.25;;;21.64;35.57
1926;BME280;964;42.606;23.588;2024-02-26T11:01:30;93951.47;;;22.13;34.81
1926;BME280;964;42.606;23.588;2024-02-26T11:03:58;93949.09;;;22.37;35.62
1926;BME280;964;42.606;23.588;2024-02-26T11:06:27;93954.50;;;22.59;34.87
1926;BME280;964;42.606;23.588;2024-02-26T11:08:55;93953.16;;;21.73;35.35
1926;BME280;964;42.606;23.588;2024-02-26T11:11:23;93955.59;;;21.80;34.94
1926;BME280;964;42.606;23.588;2024-02-26T11:13:51;93950.56;;;22.16;35.33
1926;BME280;964;42.606;23.588;2024-02-26T11:16:22;93951.13;;;22.67;35.36
1926;BME280;964;42.606;23.588;2024-02-26T11:18:49;93942.47;;;23.83;34.34
1926;BME280;964;42.606;23.588;2024-02-26T11:21:21;93950.53;;;22.29;35.51
1926;BME280;964;42.606;23.588;2024-02-26T11:23:54;93941.72;;;23.33;34.25
1926;BME280;964;42.606;23.588;2024-02-26T11:26:22;93938.88;;;23.37;33.58
1926;BME280;964;42.606;23.588;2024-02-26T11:28:51;93941.19;;;22.21;35.67
1926;BME280;964;42.606;23.588;2024-02-26T11:31:18;93948.59;;;21.82;36.67
1926;BME280;964;42.606;23.588;2024-02-26T11:33:54;93942.06;;;22.18;35.72
1926;BME280;964;42.606;23.588;2024-02-26T11:36:23;93939.63;;;22.54;35.75
1926;BME280;964;42.606;23.588;2024-02-26T11:38:51;93940.50;;;22.51;35.58
1926;BME280;964;42.606;23.588;2024-02-26T11:41:18;93925.19;;;23.71;34.49
1926;BME280;964;42.606;23.588;2024-02-26T11:44:01;93932.03;;;22.62;35.14
1926;BME280;964;42.606;23.588;2024-02-26T11:46:31;93934.50;;;22.13;36.39
1926;BME280;964;42.606;23.588;2024-02-26T11:49:00;93934.00;;;22.27;36.23
1926;BME280;964;42.606;23.588;2024-02-26T11:51:28;93931.69;;;22.38;35.58
1926;BME280;964;42.606;23.588;2024-02-26T11:53:58;93925.25;;;22.57;34.86
1926;BME280;964;42.606;23.588;2024-02-26T11:56:25;93923.31;;;22.79;35.83
1926;BME280;964;42.606;23.588;2024-02-26T11:58:58;93934.13;;;23.50;35.12
1926;BME280;964;42.606;23.588;2024-02-26T12:01:39;93925.38;;;22.75;35.20
1926;BME280;964;42.606;23.588;2024-02-26T12:04:08;93922.56;;;22.79;34.79
1926;BME280;964;42.606;23.588;2024-02-26T12:06:42;93911.72;;;23.10;34.05
1926;BME280;964;42.606;23.588;2024-02-26T12:09:09;93925.28;;;22.66;34.48
1926;BME280;964;42.606;23.588;2024-02-26T12:11:37;93922.53;;;23.10;34.51
1926;BME280;964;42.606;23.588;2024-02-26T12:14:05;93911.91;;;22.41;35.21
1926;BME280;964;42.606;23.588;2024-02-26T12:16:37;93910.41;;;23.45;33.17
1926;BME280;964;42.606;23.588;2024-02-26T12:19:07;93919.78;;;23.80;33.42
1926;BME280;964;42.606;23.588;2024-02-26T12:21:35;93919.72;;;23.44;32.89
1926;BME280;964;42.606;23.588;2024-02-26T12:24:12;93894.06;;;24.76;32.33
1926;BME280;964;42.606;23.588;2024-02-26T12:26:40;93911.09;;;24.04;32.45
1926;BME280;964;42.606;23.588;2024-02-26T12:29:07;93908.22;;;23.98;32.26
1926;BME280;964;42.606;23.588;2024-02-26T12:31:34;93913.06;;;24.49;31.66
1926;BME280;964;42.606;23.588;2024-02-26T12:34:02;93913.22;;;24.27;30.56
1926;BME280;964;42.606;23.588;2024-02-26T12:36:31;93911.66;;;24.80;29.92
1926;BME280;964;42.606;23.588;2024-02-26T12:38:58;93921.31;;;24.91;30.35
1926;BME280;964;42.606;23.588;2024-02-26T12:41:24;93908.66;;;24.87;29.76
1926;BME280;964;42.606;23.588;2024-02-26T12:43:52;93908.94;;;24.99;29.87
1926;BME280;964;42.606;23.588;2024-02-26T12:46:20;93904.44;;;25.61;29.53
1926;BME280;964;42.606;23.588;2024-02-26T12:48:48;93908.66;;;24.78;29.64
1926;BME280;964;42.606;23.588;2024-02-26T12:51:16;93905.16;;;25.71;29.18
1926;BME280;964;42.606;23.588;2024-02-26T12:53:45;93905.34;;;24.74;29.91
1926;BME280;964;42.606;23.588;2024-02-26T12:56:16;93907.13;;;24.77;29.79
1926;BME280;964;42.606;23.588;2024-02-26T12:58:43;93910.41;;;25.09;29.58
1926;BME280;964;42.606;23.588;2024-02-26T13:01:14;93910.00;;;25.34;28.60
1926;BME280;964;42.606;23.588;2024-02-26T13:03:42;93902.22;;;25.18;28.62
1926;BME280;964;42.606;23.588;2024-02-26T13:06:09;93900.16;;;25.78;28.17
1926;BME280;964;42.606;23.588;2024-02-26T13:08:37;93903.84;;;25.66;28.51
1926;BME280;964;42.606;23.588;2024-02-26T13:11:05;93905.97;;;24.87;29.07
1926;BME280;964;42.606;23.588;2024-02-26T13:13:32;93896.31;;;25.61;28.13
1926;BME280;964;42.606;23.588;2024-02-26T13:16:03;93895.31;;;25.17;28.29
1926;BME280;964;42.606;23.588;2024-02-26T13:18:32;93893.38;;;25.74;27.77
1926;BME280;964;42.606;23.588;2024-02-26T13:21:12;93903.19;;;25.95;27.35
1926;BME280;964;42.606;23.588;2024-02-26T13:23:39;93908.09;;;24.56;28.18